createdAt,value
2023-08-29T00:10:35.951Z,23.9
2023-08-29T00:30:42.381Z,23.8
2023-08-29T00:40:42.045Z,23.8
2023-08-29T05:02:02.678Z,23.3
2023-08-29T06:22:06.095Z,23.9
2023-08-29T06:32:08.722Z,23.9
2023-08-29T06:42:10.427Z,23.9
2023-08-29T07:02:14.563Z,24.2
2023-08-29T07:12:18.488Z,24.1
2023-08-29T07:22:23.823Z,24.2
2023-08-29T07:32:21.205Z,24.4
2023-08-29T07:42:22.966Z,24.6
2023-08-29T07:52:25.379Z,24.6
2023-08-29T08:02:28.038Z,24.6
2023-08-29T08:12:30.446Z,24.6
2023-08-29T08:22:32.620Z,24.8
2023-08-29T08:32:35.034Z,24.9
2023-08-29T08:42:37.582Z,25.2
2023-08-29T08:52:39.616Z,25.4
2023-08-29T09:12:44.382Z,25.6
2023-08-29T09:32:49.091Z,25.9
2023-08-29T09:42:51.473Z,26
2023-08-29T09:52:53.636Z,26.2
2023-08-29T10:02:56.118Z,26.4
2023-08-29T10:12:58.296Z,26.6
2023-08-29T10:23:00.696Z,26.9
2023-08-29T10:33:02.883Z,27
2023-08-29T10:43:05.084Z,27.2
2023-08-29T10:53:07.405Z,27.2
2023-08-29T11:03:09.941Z,27
2023-08-29T11:13:12.213Z,26.8
2023-08-29T11:23:14.386Z,26.6
2023-08-29T11:33:16.794Z,26.6
2023-08-29T11:43:20.523Z,26.6
2023-08-29T11:53:20.841Z,26.8
2023-08-29T12:13:24.477Z,27.1
2023-08-29T12:23:26.908Z,26.9
2023-08-29T12:33:29.243Z,26.7
2023-08-29T12:43:31.269Z,26.7
2023-08-29T12:53:33.193Z,26.8
2023-08-29T13:03:35.242Z,26.8
2023-08-29T13:13:37.796Z,26.8
2023-08-29T13:23:39.680Z,26.8
2023-08-29T13:33:41.478Z,26.8
2023-08-29T13:43:44.096Z,26.7
2023-08-29T13:53:46.718Z,26.6
2023-08-29T14:03:49.142Z,26.5
2023-08-29T14:13:51.639Z,26.4
2023-08-29T14:23:53.917Z,26.6
2023-08-29T14:33:56.582Z,26.4
2023-08-29T14:43:59.122Z,26.4
2023-08-29T14:54:00.839Z,26.4
2023-08-29T15:04:02.940Z,26.3
2023-08-29T15:14:04.769Z,26.3
2023-08-29T15:24:07.152Z,26.3
2023-08-29T15:34:09.677Z,26.2
2023-08-29T15:54:14.275Z,26.2
2023-08-29T16:04:16.959Z,26.1
2023-08-29T16:14:19.071Z,25.8
2023-08-29T16:24:21.131Z,25.9
2023-08-29T17:04:29.940Z,25.6
2023-08-29T17:14:31.859Z,25.5
2023-08-29T17:34:35.726Z,25.3
2023-08-29T18:34:48.611Z,24.8
2023-08-29T19:04:55.845Z,24.6
2023-08-29T22:05:34.552Z,24.2
2023-08-29T22:25:39.223Z,24.2
2023-08-29T22:35:41.700Z,24.2
2023-08-29T22:45:43.514Z,24.2
2023-08-29T23:05:47.617Z,24.2
2023-08-29T23:25:51.285Z,24.2
2023-08-29T23:45:55.993Z,24.1
